Time;durP1;ratioP1;P1;durP2;ratioP2;P2;SDS_P1;SDS_P2;PMS_P1;PMS_P2;Temp;Humidity;BMP_temperature;BMP_pressure;BME280_temperature;BME280_humidity;BME280_pressure;Samples;Min_cycle;Max_cycle;Signal;HPM_P1;HPM_P2
2021/06/22 00:02:19;;;;;;;5.18;2.70;;;19.80;99.90;;;;;;5053542;28;20389;-51
2021/06/22 00:04:44;;;;;;;7.13;2.90;;;19.80;99.90;;;;;;5053031;28;20413;-51
2021/06/22 00:07:14;;;;;;;5.83;2.40;;;19.70;99.90;;;;;;5052282;28;20384;-51
2021/06/22 00:09:41;;;;;;;5.80;2.47;;;19.60;99.90;;;;;;5053386;28;20385;-52
2021/06/22 00:12:08;;;;;;;6.90;2.70;;;19.50;99.90;;;;;;5052548;28;20400;-51
2021/06/22 00:14:33;;;;;;;5.10;2.55;;;19.50;99.90;;;;;;5052617;28;20396;-51
2021/06/22 00:16:59;;;;;;;6.13;2.70;;;19.50;99.90;;;;;;5052154;28;20417;-51
2021/06/22 00:19:24;;;;;;;5.40;2.67;;;19.50;99.90;;;;;;5053164;28;20800;-51
2021/06/22 00:21:50;;;;;;;5.40;2.38;;;19.50;99.90;;;;;;5052351;28;20389;-54
2021/06/22 00:24:16;;;;;;;5.03;2.47;;;19.60;99.90;;;;;;5052415;28;20487;-51
2021/06/22 00:26:41;;;;;;;6.20;2.73;;;19.70;99.90;;;;;;5052859;28;20798;-52
2021/06/22 00:29:07;;;;;;;6.63;2.72;;;19.80;99.90;;;;;;5051756;28;20385;-51
2021/06/22 00:31:33;;;;;;;5.72;2.40;;;19.80;99.90;;;;;;5052553;28;20381;-52
2021/06/22 00:33:58;;;;;;;5.40;2.80;;;19.80;99.90;;;;;;5050681;28;20393;-52
2021/06/22 00:36:24;;;;;;;5.80;2.73;;;19.80;99.90;;;;;;5052895;28;20500;-51
2021/06/22 00:38:49;;;;;;;6.73;3.10;;;19.80;99.90;;;;;;5052295;28;20843;-53
2021/06/22 00:41:15;;;;;;;7.60;3.20;;;19.70;99.90;;;;;;5052215;28;20381;-51
2021/06/22 00:43:41;;;;;;;7.25;2.80;;;19.60;99.90;;;;;;5052162;28;20771;-51
2021/06/22 00:46:08;;;;;;;5.50;3.00;;;19.50;99.90;;;;;;5051848;28;20416;-51
2021/06/22 00:48:34;;;;;;;6.20;3.63;;;19.30;99.90;;;;;;5051184;28;20488;-51
2021/06/22 00:51:00;;;;;;;6.70;3.70;;;19.10;99.90;;;;;;5051250;28;20919;-51
2021/06/22 00:53:26;;;;;;;6.72;3.90;;;19.00;99.90;;;;;;5052372;28;20894;-51
2021/06/22 00:55:53;;;;;;;8.05;4.40;;;18.90;99.90;;;;;;5051495;28;20382;-53
2021/06/22 00:58:20;;;;;;;12.10;4.30;;;18.80;99.90;;;;;;5052233;28;20413;-51
2021/06/22 01:00:46;;;;;;;12.10;4.20;;;18.70;99.90;;;;;;5052210;28;20382;-52
2021/06/22 01:03:18;;;;;;;9.98;4.40;;;18.60;99.90;;;;;;5051160;28;20393;-51
2021/06/22 01:05:44;;;;;;;10.52;4.10;;;18.60;99.90;;;;;;5052010;28;20548;-51
2021/06/22 01:08:12;;;;;;;8.80;4.32;;;18.60;99.90;;;;;;5051150;28;20476;-51
2021/06/22 01:10:38;;;;;;;10.20;5.10;;;18.60;99.90;;;;;;5051918;28;20945;-51
2021/06/22 01:13:04;;;;;;;7.78;4.50;;;18.50;99.90;;;;;;5051133;28;20381;-51
2021/06/22 01:15:30;;;;;;;9.00;4.40;;;18.40;99.90;;;;;;5051979;28;20377;-51
2021/06/22 01:17:59;;;;;;;10.35;4.18;;;18.40;99.90;;;;;;5050928;28;20412;-51
2021/06/22 01:20:30;;;;;;;7.20;4.30;;;18.40;99.90;;;;;;5051746;28;20464;-51
2021/06/22 01:22:57;;;;;;;6.72;4.15;;;18.30;99.90;;;;;;5050936;28;20778;-51
2021/06/22 01:25:23;;;;;;;9.65;4.78;;;18.20;99.90;;;;;;5051769;28;20377;-51
2021/06/22 01:27:49;;;;;;;9.00;4.20;;;18.10;99.90;;;;;;5051330;28;20389;-54
2021/06/22 01:30:15;;;;;;;8.87;4.60;;;18.00;99.90;;;;;;5051090;28;20871;-51
2021/06/22 01:32:42;;;;;;;10.07;4.57;;;18.00;99.90;;;;;;5051282;28;20385;-50
2021/06/22 01:35:09;;;;;;;8.27;4.70;;;18.00;99.90;;;;;;5051108;28;20409;-49
2021/06/22 01:37:35;;;;;;;8.18;4.30;;;17.90;99.90;;;;;;5051639;28;20875;-50
2021/06/22 01:40:05;;;;;;;6.70;4.07;;;17.80;99.90;;;;;;5050651;28;20381;-50
2021/06/22 01:42:31;;;;;;;9.40;4.13;;;17.70;99.90;;;;;;5051395;28;20456;-50
2021/06/22 01:44:57;;;;;;;7.80;4.07;;;17.70;99.90;;;;;;5050516;28;20461;-49
2021/06/22 01:47:23;;;;;;;8.80;4.30;;;17.70;99.90;;;;;;5051073;28;20863;-50
2021/06/22 01:49:59;;;;;;;9.27;4.30;;;17.70;99.90;;;;;;5051213;28;20381;-49
2021/06/22 01:52:26;;;;;;;11.80;4.70;;;17.80;99.90;;;;;;5051147;28;20396;-50
2021/06/22 01:54:54;;;;;;;8.33;4.50;;;17.80;99.90;;;;;;5050313;28;20389;-52
2021/06/22 01:57:22;;;;;;;9.55;4.93;;;17.70;99.90;;;;;;5050856;28;20413;-50
2021/06/22 01:59:48;;;;;;;7.90;4.50;;;17.70;99.90;;;;;;5049463;28;20484;-50
2021/06/22 02:02:13;;;;;;;9.88;5.05;;;17.80;99.90;;;;;;5048429;28;20544;-50
2021/06/22 02:04:39;;;;;;;8.90;4.97;;;17.80;99.90;;;;;;5051218;28;20425;-50
2021/06/22 02:07:05;;;;;;;9.38;6.07;;;17.80;99.90;;;;;;5050425;28;20500;-50
2021/06/22 02:09:31;;;;;;;8.55;5.00;;;17.80;99.90;;;;;;5050436;28;20388;-51
2021/06/22 02:11:56;;;;;;;10.23;4.97;;;17.80;99.90;;;;;;5049785;28;20385;-50
2021/06/22 02:14:22;;;;;;;9.10;4.90;;;17.70;99.90;;;;;;5050466;28;20389;-50
2021/06/22 02:16:48;;;;;;;9.90;5.07;;;17.80;99.90;;;;;;5050656;28;20448;-50
2021/06/22 02:19:14;;;;;;;9.80;5.07;;;17.70;99.90;;;;;;5049550;28;20381;-50
2021/06/22 02:21:39;;;;;;;10.70;5.90;;;17.70;99.90;;;;;;5050302;28;20745;-50
2021/06/22 02:24:05;;;;;;;10.45;5.60;;;17.60;99.90;;;;;;5049561;28;20389;-50
2021/06/22 02:26:31;;;;;;;10.00;5.55;;;17.60;99.90;;;;;;5050291;28;20502;-50
2021/06/22 02:28:57;;;;;;;10.30;5.30;;;17.60;99.90;;;;;;5049645;28;20389;-50
2021/06/22 02:31:22;;;;;;;9.27;5.03;;;17.70;99.90;;;;;;5050403;28;20731;-50
2021/06/22 02:33:48;;;;;;;8.97;4.40;;;17.80;99.90;;;;;;5050482;28;20965;-50
2021/06/22 02:36:14;;;;;;;8.82;4.82;;;17.80;99.90;;;;;;5049653;28;20376;-50
2021/06/22 02:38:40;;;;;;;11.32;5.43;;;17.90;99.90;;;;;;5065571;28;20396;-50
2021/06/22 02:41:05;;;;;;;7.63;5.00;;;17.90;99.90;;;;;;5049594;28;20420;-50
2021/06/22 02:43:32;;;;;;;10.25;5.05;;;17.90;99.90;;;;;;5050151;28;20425;-50
2021/06/22 02:45:58;;;;;;;8.73;4.80;;;17.90;99.90;;;;;;5049071;28;20864;-50
2021/06/22 02:48:23;;;;;;;10.10;5.00;;;17.90;99.90;;;;;;5050157;28;20388;-50
2021/06/22 02:50:49;;;;;;;7.30;4.93;;;17.90;99.90;;;;;;5050112;28;20468;-50
2021/06/22 02:53:15;;;;;;;8.57;4.80;;;17.90;99.90;;;;;;5049446;28;20456;-50
2021/06/22 02:55:41;;;;;;;11.68;4.90;;;17.90;99.90;;;;;;5049824;28;20389;-50
2021/06/22 02:58:07;;;;;;;7.70;5.20;;;17.90;99.90;;;;;;5049088;28;20448;-50
2021/06/22 03:00:33;;;;;;;8.93;5.30;;;17.90;99.90;;;;;;5049822;28;20406;-50
2021/06/22 03:02:59;;;;;;;7.05;4.82;;;17.90;99.90;;;;;;5048917;28;20851;-50
2021/06/22 03:05:25;;;;;;;9.55;4.95;;;18.00;99.90;;;;;;5049607;28;20409;-50
2021/06/22 03:07:51;;;;;;;8.95;5.10;;;18.10;99.90;;;;;;5047574;28;20385;-52
2021/06/22 03:10:19;;;;;;;11.80;4.80;;;18.20;99.90;;;;;;5048191;28;20389;-50
2021/06/22 03:12:44;;;;;;;10.32;5.05;;;18.20;99.90;;;;;;5048684;28;20389;-50
2021/06/22 03:15:13;;;;;;;8.63;5.10;;;18.20;99.90;;;;;;5048833;28;20392;-50
2021/06/22 03:17:39;;;;;;;10.30;4.88;;;18.20;99.90;;;;;;5049022;28;20492;-50
2021/06/22 03:20:06;;;;;;;11.23;5.28;;;18.30;99.90;;;;;;5048657;28;20446;-50
2021/06/22 03:22:32;;;;;;;10.35;5.60;;;18.30;99.90;;;;;;5049269;28;20390;-50
2021/06/22 03:24:57;;;;;;;13.57;5.73;;;18.30;99.90;;;;;;5049093;28;20378;-50
2021/06/22 03:27:23;;;;;;;8.93;5.18;;;18.30;99.90;;;;;;5048392;28;20389;-50
2021/06/22 03:29:49;;;;;;;10.10;5.20;;;18.30;99.90;;;;;;5049234;28;20728;-52
2021/06/22 03:32:16;;;;;;;8.17;5.00;;;18.30;99.90;;;;;;5048047;28;20842;-50
2021/06/22 03:34:43;;;;;;;9.05;4.70;;;18.40;99.90;;;;;;5048677;28;20416;-50
2021/06/22 03:37:09;;;;;;;7.35;4.57;;;18.30;99.90;;;;;;5049456;28;20416;-53
2021/06/22 03:39:35;;;;;;;9.33;4.80;;;18.40;99.90;;;;;;5049883;28;20464;-50
2021/06/22 03:42:02;;;;;;;10.27;5.50;;;18.40;99.90;;;;;;5048035;28;20863;-50
2021/06/22 03:44:28;;;;;;;9.48;5.30;;;18.50;99.90;;;;;;5049429;28;20472;-51
2021/06/22 03:46:53;;;;;;;9.10;5.85;;;18.50;99.90;;;;;;5048917;28;20457;-52
2021/06/22 03:49:19;;;;;;;9.52;5.47;;;18.40;99.90;;;;;;5048767;28;20374;-50
2021/06/22 03:51:44;;;;;;;9.53;6.00;;;18.40;99.90;;;;;;5049141;28;20392;-50
2021/06/22 03:54:10;;;;;;;9.50;5.60;;;18.50;99.90;;;;;;5048534;28;20441;-50
2021/06/22 03:56:36;;;;;;;9.75;6.43;;;18.50;99.90;;;;;;5049408;28;20413;-50
2021/06/22 03:59:01;;;;;;;8.98;5.40;;;18.50;99.90;;;;;;5048884;28;20390;-50
2021/06/22 04:01:27;;;;;;;11.53;5.77;;;18.50;99.90;;;;;;5049045;28;20859;-50
2021/06/22 04:03:52;;;;;;;11.00;6.10;;;18.70;99.90;;;;;;5048865;28;20859;-52
2021/06/22 04:06:18;;;;;;;10.82;6.18;;;18.80;99.90;;;;;;5048857;28;20871;-50
2021/06/22 04:08:44;;;;;;;8.80;5.70;;;18.80;99.90;;;;;;5048971;28;20413;-50
2021/06/22 04:11:10;;;;;;;8.90;5.93;;;18.80;99.90;;;;;;5048238;28;20378;-51
2021/06/22 04:13:36;;;;;;;10.50;5.97;;;18.90;99.90;;;;;;5049147;28;20408;-50
2021/06/22 04:16:02;;;;;;;10.33;6.20;;;19.00;99.90;;;;;;5048041;28;20424;-50
2021/06/22 04:18:28;;;;;;;9.27;5.60;;;19.00;99.90;;;;;;5048955;28;20441;-50
2021/06/22 04:20:53;;;;;;;9.23;5.63;;;19.10;99.90;;;;;;5049100;28;20798;-53
2021/06/22 04:23:19;;;;;;;11.98;5.80;;;19.00;99.90;;;;;;5050235;28;20381;-50
2021/06/22 04:25:47;;;;;;;9.70;6.50;;;19.10;99.90;;;;;;5052687;28;20386;-50
2021/06/22 04:28:13;;;;;;;12.40;6.70;;;19.20;99.90;;;;;;5051462;28;20470;-50
2021/06/22 04:30:39;;;;;;;11.73;6.97;;;19.20;99.90;;;;;;5052159;28;20389;-50
2021/06/22 04:33:06;;;;;;;10.40;6.40;;;19.00;99.90;;;;;;5051598;28;20421;-50
2021/06/22 04:35:32;;;;;;;11.52;7.13;;;18.90;99.90;;;;;;5052892;28;20402;-51
2021/06/22 04:37:59;;;;;;;14.87;7.70;;;18.90;99.90;;;;;;5051483;28;20879;-51
2021/06/22 04:40:25;;;;;;;10.45;7.40;;;19.00;99.90;;;;;;5052228;28;20377;-51
2021/06/22 04:42:51;;;;;;;11.20;7.47;;;19.00;99.90;;;;;;5052823;28;20938;-50
2021/06/22 04:45:17;;;;;;;10.10;6.90;;;19.00;99.90;;;;;;5050246;28;20488;-51
2021/06/22 04:47:43;;;;;;;10.13;6.65;;;19.00;99.90;;;;;;5052395;28;20839;-50
2021/06/22 04:50:09;;;;;;;10.80;6.22;;;19.20;99.90;;;;;;5051679;28;20836;-51
2021/06/22 04:52:35;;;;;;;10.15;6.18;;;19.30;99.90;;;;;;5052270;28;20468;-50
2021/06/22 04:55:01;;;;;;;10.60;6.65;;;19.30;99.90;;;;;;5051082;28;20511;-51
2021/06/22 04:57:27;;;;;;;11.67;6.80;;;19.50;99.90;;;;;;5048888;28;20606;-51
2021/06/22 04:59:53;;;;;;;9.60;6.00;;;19.50;99.90;;;;;;5051750;28;20732;-54
2021/06/22 05:02:19;;;;;;;12.32;8.35;;;19.70;99.90;;;;;;5051238;28;20397;-52
2021/06/22 05:04:45;;;;;;;12.60;8.20;;;19.80;99.90;;;;;;5051914;28;20410;-51
2021/06/22 05:07:11;;;;;;;15.30;10.27;;;19.70;99.90;;;;;;5050926;28;20862;-51
2021/06/22 05:09:37;;;;;;;17.97;12.67;;;19.80;99.90;;;;;;5051413;28;20450;-51
2021/06/22 05:12:03;;;;;;;19.87;11.80;;;19.80;99.90;;;;;;5051117;28;20413;-51
2021/06/22 05:14:28;;;;;;;17.45;11.55;;;19.80;99.90;;;;;;5051386;28;20386;-51
2021/06/22 05:16:54;;;;;;;17.10;11.90;;;19.90;99.90;;;;;;5047386;28;20470;-55
2021/06/22 05:19:20;;;;;;;17.13;11.80;;;20.00;99.90;;;;;;5050057;28;20966;-52
2021/06/22 05:21:45;;;;;;;16.13;10.70;;;19.90;99.90;;;;;;5050925;28;20381;-51
2021/06/22 05:24:12;;;;;;;16.60;11.05;;;20.10;99.90;;;;;;5049887;28;20500;-52
2021/06/22 05:26:38;;;;;;;15.52;10.32;;;20.20;99.90;;;;;;5051185;28;20385;-51
2021/06/22 05:29:04;;;;;;;12.68;9.05;;;20.10;99.90;;;;;;5049962;28;20381;-51
2021/06/22 05:31:29;;;;;;;11.32;7.20;;;20.20;99.90;;;;;;5050633;28;20388;-51
2021/06/22 05:33:56;;;;;;;11.83;8.43;;;20.10;99.90;;;;;;5051074;28;20398;-54
2021/06/22 05:36:21;;;;;;;14.25;8.05;;;20.00;99.90;;;;;;5050641;28;20400;-50
2021/06/22 05:38:47;;;;;;;13.60;8.40;;;20.10;99.90;;;;;;5051339;28;20382;-51
2021/06/22 05:41:13;;;;;;;10.63;7.50;;;20.10;99.90;;;;;;5050301;28;20902;-51
2021/06/22 05:43:39;;;;;;;12.43;8.05;;;20.10;99.90;;;;;;5066407;28;20489;-50
2021/06/22 05:46:05;;;;;;;14.48;7.72;;;20.10;99.90;;;;;;5050481;28;20384;-51
2021/06/22 05:48:30;;;;;;;11.05;7.13;;;20.10;99.90;;;;;;5051369;28;20378;-50
2021/06/22 05:50:56;;;;;;;10.83;7.70;;;20.10;99.90;;;;;;5046631;28;20408;-53
2021/06/22 05:53:22;;;;;;;10.83;8.10;;;20.30;99.90;;;;;;5047731;28;20432;-50
2021/06/22 05:55:48;;;;;;;11.63;7.72;;;20.20;99.90;;;;;;5049564;28;20435;-52
2021/06/22 05:58:19;;;;;;;14.75;10.23;;;20.20;99.90;;;;;;5050226;28;20547;-50
2021/06/22 06:00:45;;;;;;;13.23;8.80;;;20.20;99.90;;;;;;5050530;28;20381;-51
2021/06/22 06:03:11;;;;;;;12.68;9.25;;;20.30;99.90;;;;;;5050138;28;20447;-51
2021/06/22 06:05:36;;;;;;;16.90;9.90;;;20.40;99.90;;;;;;5050499;28;20467;-51
2021/06/22 06:08:02;;;;;;;15.30;11.00;;;20.50;99.90;;;;;;5050213;28;20465;-51
2021/06/22 06:10:28;;;;;;;18.73;11.95;;;20.50;99.90;;;;;;5050418;28;20385;-50
2021/06/22 06:12:54;;;;;;;19.70;12.40;;;20.60;99.90;;;;;;5050115;28;20381;-51
2021/06/22 06:15:20;;;;;;;18.40;12.10;;;21.90;99.90;;;;;;5050260;28;20382;-51
2021/06/22 06:17:46;;;;;;;19.30;12.05;;;20.50;99.90;;;;;;5050405;28;20890;-50
2021/06/22 06:20:13;;;;;;;16.95;12.25;;;20.40;99.90;;;;;;5049603;28;20378;-51
2021/06/22 06:22:41;;;;;;;16.83;11.55;;;20.40;99.90;;;;;;5050567;28;20385;-50
2021/06/22 06:25:08;;;;;;;19.15;11.40;;;20.40;99.90;;;;;;5049890;28;20394;-50
2021/06/22 06:30:25;;;;;;;16.33;10.57;;;20.40;99.90;;;;;;5049613;28;20443;-48
2021/06/22 06:32:52;;;;;;;13.80;9.73;;;20.60;99.90;;;;;;5050766;28;20382;-49
2021/06/22 06:35:19;;;;;;;15.20;9.57;;;20.60;99.90;;;;;;5049637;28;20667;-49
2021/06/22 06:37:46;;;;;;;12.75;9.75;;;20.80;99.90;;;;;;5049662;28;20409;-49
2021/06/22 06:40:13;;;;;;;14.20;9.95;;;21.10;99.90;;;;;;5049085;28;20425;-49
2021/06/22 06:42:40;;;;;;;18.33;10.20;;;21.10;99.90;;;;;;5049830;28;20413;-50
2021/06/22 06:45:07;;;;;;;16.58;9.50;;;21.10;99.90;;;;;;5049574;28;20388;-49
2021/06/22 06:47:33;;;;;;;14.63;10.07;;;21.00;99.90;;;;;;5048880;28;20484;-49
2021/06/22 06:49:59;;;;;;;15.10;10.90;;;21.10;99.90;;;;;;5049431;28;20883;-51
2021/06/22 06:52:24;;;;;;;17.60;10.83;;;21.10;99.90;;;;;;5049642;28;20385;-49
2021/06/22 06:54:50;;;;;;;18.90;11.32;;;21.00;99.90;;;;;;5050392;28;20443;-49
2021/06/22 06:57:16;;;;;;;18.20;11.13;;;21.10;99.90;;;;;;5048780;28;20504;-49
2021/06/22 06:59:41;;;;;;;17.17;11.93;;;21.30;99.90;;;;;;5049436;28;20900;-49
2021/06/22 07:02:08;;;;;;;17.47;12.13;;;21.40;99.90;;;;;;5049261;28;20385;-49
2021/06/22 07:04:34;;;;;;;16.20;11.40;;;21.70;99.90;;;;;;5049435;28;20440;-49
2021/06/22 07:06:59;;;;;;;16.08;11.55;;;21.90;99.90;;;;;;5048484;28;20436;-52
2021/06/22 07:09:25;;;;;;;15.75;11.30;;;22.10;99.90;;;;;;5049188;28;20386;-49
2021/06/22 07:11:51;;;;;;;17.98;12.27;;;22.10;99.90;;;;;;5049516;28;20853;-49
2021/06/22 07:14:17;;;;;;;19.20;11.65;;;21.80;99.90;;;;;;5048711;28;20414;-49
2021/06/22 07:16:45;;;;;;;15.90;10.77;;;21.60;99.90;;;;;;5048465;28;20413;-49
2021/06/22 07:19:11;;;;;;;15.20;11.23;;;21.30;99.90;;;;;;5049250;28;20383;-49
2021/06/22 07:21:36;;;;;;;15.10;11.23;;;21.30;99.90;;;;;;5049171;28;20378;-49
2021/06/22 07:24:02;;;;;;;17.50;11.90;;;21.20;99.90;;;;;;5048153;28;20855;-49
2021/06/22 07:26:28;;;;;;;17.75;12.88;;;21.20;99.90;;;;;;5049642;28;20381;-49
2021/06/22 07:28:53;;;;;;;19.65;13.00;;;20.60;99.90;;;;;;5049884;28;20385;-49
2021/06/22 07:31:19;;;;;;;16.83;12.10;;;21.00;99.90;;;;;;5048677;28;20408;-49
2021/06/22 07:33:49;;;;;;;19.53;13.43;;;21.10;99.90;;;;;;5048167;28;20386;-49
2021/06/22 07:36:15;;;;;;;16.42;12.55;;;21.10;99.90;;;;;;5048900;28;20378;-49
2021/06/22 07:38:40;;;;;;;16.35;12.40;;;21.20;99.90;;;;;;5048933;28;20736;-49
2021/06/22 07:41:06;;;;;;;18.65;12.95;;;21.20;99.90;;;;;;5048791;28;20457;-49
2021/06/22 07:43:31;;;;;;;18.90;12.43;;;21.20;99.90;;;;;;5049024;28;20385;-49
2021/06/22 07:45:57;;;;;;;18.87;12.40;;;21.10;99.90;;;;;;5048847;28;20846;-51
2021/06/22 07:48:23;;;;;;;19.20;13.70;;;21.20;99.90;;;;;;5048718;28;20727;-50
2021/06/22 07:50:48;;;;;;;17.27;12.35;;;21.30;99.90;;;;;;5049431;28;20393;-49
2021/06/22 07:53:14;;;;;;;17.60;12.30;;;21.30;99.90;;;;;;5048810;28;20794;-50
2021/06/22 07:55:40;;;;;;;18.02;12.00;;;21.30;99.90;;;;;;5049548;28;20877;-50
2021/06/22 07:58:07;;;;;;;18.10;12.80;;;21.40;99.90;;;;;;5049214;28;20421;-51
2021/06/22 08:00:43;;;;;;;17.80;12.40;;;21.40;99.90;;;;;;5053421;28;20380;-50
2021/06/22 08:03:14;;;;;;;17.17;12.25;;;21.30;99.90;;;;;;5052564;28;20382;-51
2021/06/22 08:05:41;;;;;;;18.85;12.75;;;21.30;99.90;;;;;;5053055;28;20417;-50
2021/06/22 08:08:07;;;;;;;18.85;12.50;;;21.10;99.90;;;;;;5052065;28;20417;-50
2021/06/22 08:10:34;;;;;;;15.23;12.33;;;21.00;99.90;;;;;;5053232;28;20378;-50
2021/06/22 08:12:59;;;;;;;18.08;13.27;;;21.10;99.90;;;;;;5052682;28;20399;-51
2021/06/22 08:15:26;;;;;;;16.10;11.70;;;21.00;99.90;;;;;;5052575;28;20377;-50
2021/06/22 08:17:52;;;;;;;16.60;10.82;;;21.10;99.90;;;;;;5053037;28;20949;-51
2021/06/22 08:20:19;;;;;;;15.48;11.50;;;21.80;99.90;;;;;;5052232;28;20373;-50
2021/06/22 08:22:46;;;;;;;16.20;10.93;;;22.20;99.90;;;;;;5052478;28;20439;-51
2021/06/22 08:25:13;;;;;;;14.88;10.80;;;22.40;99.90;;;;;;5051596;28;20421;-51
2021/06/22 08:27:38;;;;;;;19.52;12.43;;;22.40;99.90;;;;;;5052747;28;20447;-50
2021/06/22 08:30:05;;;;;;;19.43;11.80;;;22.40;99.90;;;;;;5051813;28;20847;-50
2021/06/22 08:32:31;;;;;;;19.63;12.70;;;22.60;99.90;;;;;;5052541;28;20384;-50
2021/06/22 08:34:57;;;;;;;16.65;12.10;;;22.60;99.90;;;;;;5052412;28;20530;-51
2021/06/22 08:37:23;;;;;;;15.27;11.93;;;22.50;99.90;;;;;;5052688;28;20486;-50
2021/06/22 08:39:49;;;;;;;17.90;12.48;;;22.30;99.90;;;;;;5051755;28;20477;-50
2021/06/22 08:42:16;;;;;;;16.60;11.60;;;22.50;99.90;;;;;;5051772;28;20485;-50
2021/06/22 08:44:45;;;;;;;16.73;12.20;;;22.40;99.90;;;;;;5052179;28;20377;-50
2021/06/22 08:47:12;;;;;;;17.50;12.63;;;21.90;99.90;;;;;;5051517;28;20388;-50
2021/06/22 08:49:40;;;;;;;14.63;11.25;;;21.60;99.90;;;;;;5052455;28;20386;-50
2021/06/22 08:52:08;;;;;;;15.25;10.98;;;21.70;99.90;;;;;;5051854;28;20381;-49
2021/06/22 08:54:34;;;;;;;18.70;12.25;;;21.80;99.90;;;;;;5051323;28;20401;-49
2021/06/22 08:57:01;;;;;;;17.00;12.50;;;21.90;99.90;;;;;;5052068;28;20519;-51
2021/06/22 08:59:26;;;;;;;15.07;11.20;;;22.00;99.90;;;;;;5051741;28;20433;-49
2021/06/22 09:01:52;;;;;;;18.05;13.05;;;22.00;99.90;;;;;;5051569;28;20787;-50
2021/06/22 09:04:18;;;;;;;19.30;12.60;;;22.10;99.90;;;;;;5051288;28;21306;-49
2021/06/22 09:06:44;;;;;;;18.45;12.63;;;22.20;99.90;;;;;;5052033;28;20843;-49
2021/06/22 09:09:11;;;;;;;16.70;11.63;;;22.30;99.90;;;;;;5049671;28;20417;-49
2021/06/22 09:11:38;;;;;;;15.90;11.65;;;22.10;99.90;;;;;;5052068;28;20442;-49
2021/06/22 09:14:07;;;;;;;15.13;11.70;;;21.90;99.90;;;;;;5051402;28;20422;-49
2021/06/22 09:16:33;;;;;;;15.25;11.65;;;22.00;99.90;;;;;;5051500;28;20814;-49
2021/06/22 09:19:07;;;;;;;16.48;11.38;;;22.30;99.90;;;;;;5051602;28;20378;-51
2021/06/22 09:21:41;;;;;;;16.63;11.80;;;22.50;99.90;;;;;;5051734;28;20847;-49
2021/06/22 09:24:16;;;;;;;15.73;11.63;;;22.70;99.90;;;;;;5051029;28;20390;-49
2021/06/22 09:26:44;;;;;;;16.48;11.25;;;22.80;99.90;;;;;;5051224;28;20393;-50
2021/06/22 09:29:12;;;;;;;13.57;10.82;;;23.00;99.90;;;;;;5051010;28;20381;-49
2021/06/22 09:31:55;;;;;;;16.58;11.40;;;22.80;99.90;;;;;;5051862;28;20400;-50
2021/06/22 09:34:24;;;;;;;15.40;10.80;;;22.60;99.90;;;;;;5050885;28;20882;-50
2021/06/22 09:37:02;;;;;;;16.53;12.23;;;22.30;99.90;;;;;;5051307;28;20445;-50
2021/06/22 09:39:30;;;;;;;13.85;11.88;;;21.90;99.90;;;;;;5051222;28;20907;-50
2021/06/22 09:41:57;;;;;;;14.55;11.82;;;22.10;99.90;;;;;;5051701;28;20372;-49
2021/06/22 09:44:27;;;;;;;17.02;12.15;;;22.30;99.90;;;;;;5050886;28;20830;-48
2021/06/22 09:47:01;;;;;;;18.60;11.70;;;22.30;99.90;;;;;;5051058;28;20693;-49
2021/06/22 09:49:35;;;;;;;14.65;11.88;;;22.50;99.90;;;;;;5051303;28;20378;-50
2021/06/22 09:52:10;;;;;;;18.30;12.30;;;22.60;99.90;;;;;;5051032;28;20370;-49
2021/06/22 09:54:42;;;;;;;14.85;11.75;;;22.60;99.90;;;;;;5051453;28;20705;-49
2021/06/22 09:57:19;;;;;;;15.10;11.20;;;22.50;99.90;;;;;;5050274;28;20834;-49
2021/06/22 10:00:05;;;;;;;15.00;11.88;;;22.50;99.90;;;;;;5049103;28;20735;-49
2021/06/22 10:02:55;;;;;;;15.35;11.50;;;22.60;99.90;;;;;;5051416;28;20447;-49
2021/06/22 10:05:20;;;;;;;12.50;9.88;;;22.50;99.90;;;;;;5049729;28;20413;-49
2021/06/22 10:07:46;;;;;;;13.75;10.10;;;22.50;99.90;;;;;;5050826;28;20408;-49
2021/06/22 10:10:12;;;;;;;12.27;9.57;;;22.80;99.90;;;;;;5049806;28;20381;-49
2021/06/22 10:12:44;;;;;;;12.50;8.00;;;23.20;99.90;;;;;;5050723;28;20697;-49
2021/06/22 10:15:13;;;;;;;13.90;9.20;;;23.50;99.90;;;;;;5049945;28;20508;-49
2021/06/22 10:17:41;;;;;;;10.43;7.50;;;23.50;99.90;;;;;;5050682;28;20764;-49
2021/06/22 10:20:07;;;;;;;11.43;7.47;;;23.20;99.90;;;;;;5049812;28;20381;-50
2021/06/22 10:22:36;;;;;;;13.02;8.40;;;22.80;99.90;;;;;;5050026;28;20388;-48
2021/06/22 10:25:03;;;;;;;11.00;8.10;;;22.50;99.90;;;;;;5049626;28;20385;-50
2021/06/22 10:27:30;;;;;;;14.00;8.98;;;22.30;99.90;;;;;;5049787;28;20377;-49
2021/06/22 10:29:59;;;;;;;15.90;9.67;;;22.20;99.90;;;;;;5049490;28;20383;-50
2021/06/22 10:32:26;;;;;;;12.80;8.18;;;21.90;99.90;;;;;;5049752;28;20389;-49
2021/06/22 10:34:58;;;;;;;12.80;8.60;;;21.80;99.90;;;;;;5049582;28;20397;-49
2021/06/22 10:37:41;;;;;;;13.43;8.93;;;21.70;99.90;;;;;;5048863;28;20921;-49
2021/06/22 10:40:24;;;;;;;13.65;8.38;;;21.80;99.90;;;;;;5037988;28;20875;-50
2021/06/22 10:42:56;;;;;;;12.32;8.80;;;22.10;99.90;;;;;;5043271;28;20389;-49
2021/06/22 10:45:22;;;;;;;14.45;9.57;;;22.60;99.90;;;;;;5047564;28;20385;-51
2021/06/22 10:47:49;;;;;;;16.60;10.27;;;22.50;99.90;;;;;;5048788;28;20463;-50
2021/06/22 10:50:20;;;;;;;14.52;9.88;;;22.40;99.90;;;;;;5049025;28;20488;-50
2021/06/22 10:52:56;;;;;;;13.43;9.40;;;22.20;99.90;;;;;;5045628;28;20394;-50
2021/06/22 10:55:28;;;;;;;16.53;10.60;;;22.00;99.90;;;;;;5045183;28;20373;-50
2021/06/22 11:00:38;;;;;;;15.93;10.80;;;22.00;99.90;;;;;;5048065;28;20859;-50
2021/06/22 11:03:08;;;;;;;16.52;10.60;;;22.00;99.90;;;;;;5046766;28;20902;-53
2021/06/22 11:05:45;;;;;;;16.38;10.60;;;21.80;99.90;;;;;;5046698;28;20500;-52
2021/06/22 11:08:14;;;;;;;15.20;10.40;;;21.70;99.90;;;;;;5047739;28;20889;-50
2021/06/22 11:10:54;;;;;;;14.68;9.88;;;21.60;99.90;;;;;;5048852;28;20609;-50
2021/06/22 11:13:40;;;;;;;13.40;9.20;;;21.70;99.90;;;;;;5048546;28;20434;-49
2021/06/22 11:16:23;;;;;;;13.90;9.23;;;21.80;99.90;;;;;;5049067;28;20873;-49
2021/06/22 11:18:54;;;;;;;12.30;8.55;;;22.00;99.90;;;;;;5049787;28;20488;-50
2021/06/22 11:21:22;;;;;;;15.30;9.37;;;22.20;99.90;;;;;;5048732;28;21311;-49
2021/06/22 11:24:04;;;;;;;15.80;9.20;;;22.30;99.90;;;;;;5049189;28;20417;-49
2021/06/22 11:26:42;;;;;;;14.18;9.57;;;21.80;99.90;;;;;;5048876;28;20759;-49
2021/06/22 11:29:09;;;;;;;14.60;10.68;;;21.60;99.90;;;;;;5048556;28;20478;-49
2021/06/22 11:31:42;;;;;;;15.82;9.32;;;21.30;99.90;;;;;;5048833;28;20392;-50
2021/06/22 11:34:33;;;;;;;13.43;9.00;;;21.20;99.90;;;;;;5048466;28;20404;-50
2021/06/22 11:37:19;;;;;;;13.32;8.70;;;21.10;99.90;;;;;;5049228;28;20909;-49
2021/06/22 11:40:00;;;;;;;12.73;8.40;;;21.20;99.90;;;;;;5050296;28;20427;-49
2021/06/22 11:42:25;;;;;;;12.65;8.02;;;21.40;99.90;;;;;;5048435;28;20398;-50
2021/06/22 11:45:10;;;;;;;10.70;7.63;;;21.50;99.90;;;;;;5049373;28;20739;-50
2021/06/22 11:47:36;;;;;;;12.40;7.37;;;21.50;99.90;;;;;;5048978;28;20393;-50
2021/06/22 11:50:10;;;;;;;11.90;7.50;;;21.20;99.90;;;;;;5049157;28;20381;-52
2021/06/22 11:52:38;;;;;;;12.98;7.88;;;21.00;99.90;;;;;;5049134;28;20394;-50
2021/06/22 11:55:14;;;;;;;13.33;7.80;;;21.00;99.90;;;;;;5048305;28;20439;-52
2021/06/22 11:57:41;;;;;;;11.68;7.70;;;21.00;99.90;;;;;;5048898;28;20506;-50
2021/06/22 12:00:11;;;;;;;12.77;7.40;;;20.90;99.90;;;;;;5047926;28;20871;-50
2021/06/22 12:02:37;;;;;;;13.97;8.97;;;20.80;99.90;;;;;;5049543;28;20377;-50
2021/06/22 12:05:13;;;;;;;12.13;8.10;;;20.70;99.90;;;;;;5048487;28;20415;-53
2021/06/22 12:07:53;;;;;;;12.23;7.80;;;20.60;99.90;;;;;;5048682;28;20377;-50
2021/06/22 12:10:22;;;;;;;13.02;8.48;;;20.50;99.90;;;;;;5045754;28;20400;-50
2021/06/22 12:12:49;;;;;;;10.75;6.47;;;20.60;99.90;;;;;;5048608;28;20393;-51
2021/06/22 12:15:28;;;;;;;9.68;5.57;;;20.90;99.90;;;;;;5047579;28;20405;-49
2021/06/22 12:17:54;;;;;;;9.20;5.70;;;21.00;99.90;;;;;;5042805;28;20462;-49
2021/06/22 12:20:21;;;;;;;11.27;6.50;;;21.00;99.90;;;;;;5048089;28;20386;-50
2021/06/22 12:23:14;;;;;;;10.45;5.90;;;20.80;99.90;;;;;;5049046;28;20413;-50
2021/06/22 12:25:45;;;;;;;10.50;6.47;;;20.50;99.90;;;;;;5047418;28;20823;-50
2021/06/22 12:28:13;;;;;;;10.60;7.20;;;19.80;99.90;;;;;;5048118;28;20382;-50
2021/06/22 12:30:42;;;;;;;11.93;7.57;;;20.30;99.90;;;;;;5048136;28;20424;-50
2021/06/22 12:33:18;;;;;;;12.37;7.20;;;20.20;99.90;;;;;;5047686;28;20488;-51
2021/06/22 12:35:59;;;;;;;11.07;8.07;;;20.10;99.90;;;;;;5048692;28;20393;-50
2021/06/22 12:38:24;;;;;;;11.85;7.57;;;20.10;99.90;;;;;;5048413;28;20402;-51
2021/06/22 12:41:09;;;;;;;12.23;7.72;;;20.00;99.90;;;;;;5048724;28;20385;-51
2021/06/22 12:43:54;;;;;;;13.07;7.95;;;19.90;99.90;;;;;;5049039;28;20385;-51
2021/06/22 12:46:22;;;;;;;11.90;7.67;;;19.90;99.90;;;;;;5049874;28;20439;-51